createdAt,value
2018-10-16T00:02:03.939Z,5.80
2018-10-16T00:05:08.546Z,5.80
2018-10-16T00:08:13.606Z,5.80
2018-10-16T00:11:18.295Z,5.90
2018-10-16T00:14:21.214Z,5.90
2018-10-16T00:17:26.019Z,5.80
2018-10-16T00:20:31.975Z,5.90
2018-10-16T00:23:37.790Z,5.90
2018-10-16T00:26:41.290Z,5.90
2018-10-16T00:29:47.226Z,5.80
2018-10-16T00:32:52.093Z,5.70
2018-10-16T00:35:56.004Z,5.70
2018-10-16T00:39:00.262Z,5.60
2018-10-16T00:42:04.951Z,5.60
2018-10-16T00:45:10.571Z,5.50
2018-10-16T00:48:13.719Z,5.60
2018-10-16T00:51:20.485Z,5.50
2018-10-16T00:54:25.094Z,5.50
2018-10-16T00:57:29.795Z,5.50
2018-10-16T01:00:33.782Z,5.50
2018-10-16T01:03:39.167Z,5.60
2018-10-16T01:06:43.936Z,5.60
2018-10-16T01:09:47.458Z,5.60
2018-10-16T01:12:57.293Z,5.60
2018-10-16T01:16:02.507Z,5.50
2018-10-16T01:19:07.531Z,5.40
2018-10-16T01:22:12.336Z,5.40
2018-10-16T01:25:16.312Z,5.30
2018-10-16T01:28:20.990Z,5.30
2018-10-16T01:31:24.667Z,5.30
2018-10-16T01:34:29.351Z,5.30
2018-10-16T01:37:33.455Z,5.30
2018-10-16T01:40:39.821Z,5.40
2018-10-16T01:43:43.978Z,5.30
2018-10-16T01:46:48.766Z,5.40
2018-10-16T01:49:53.339Z,5.30
2018-10-16T01:52:58.780Z,5.20
2018-10-16T01:56:04.031Z,5.10
2018-10-16T01:59:09.927Z,5.10
2018-10-16T02:02:13.007Z,5.00
2018-10-16T02:05:17.563Z,5.00
2018-10-16T02:08:21.006Z,5.00
2018-10-16T02:11:25.117Z,5.00
2018-10-16T02:14:28.851Z,5.00
2018-10-16T02:17:31.683Z,4.90
2018-10-16T02:20:35.124Z,4.90
2018-10-16T02:23:39.179Z,4.90
2018-10-16T02:26:44.271Z,5.00
2018-10-16T02:29:49.358Z,5.10
2018-10-16T02:32:54.858Z,5.00
2018-10-16T02:35:58.799Z,4.90
2018-10-16T02:39:04.563Z,4.80
2018-10-16T02:42:08.943Z,4.70
2018-10-16T02:45:13.172Z,4.90
2018-10-16T02:48:19.099Z,4.90
2018-10-16T02:51:24.787Z,4.90
2018-10-16T02:54:27.601Z,5.00
2018-10-16T02:57:32.927Z,5.00
2018-10-16T03:00:37.014Z,5.00
2018-10-16T03:03:41.287Z,5.00
2018-10-16T03:06:46.062Z,4.90
2018-10-16T03:09:49.807Z,4.90
2018-10-16T03:12:53.783Z,4.80
2018-10-16T03:15:58.075Z,4.70
2018-10-16T03:19:02.594Z,4.70
2018-10-16T03:22:06.106Z,4.70
2018-10-16T03:25:11.290Z,4.60
2018-10-16T03:28:16.663Z,4.70
2018-10-16T03:31:20.111Z,4.60
2018-10-16T03:34:25.443Z,4.60
2018-10-16T03:37:29.607Z,4.70
2018-10-16T03:40:34.518Z,4.70
2018-10-16T03:43:38.859Z,4.70
2018-10-16T03:46:43.802Z,4.60
2018-10-16T03:49:48.166Z,4.60
2018-10-16T03:52:51.847Z,4.60
2018-10-16T03:55:56.345Z,4.50
2018-10-16T03:58:59.799Z,4.40
2018-10-16T04:02:03.626Z,4.50
2018-10-16T04:05:08.010Z,4.50
2018-10-16T04:08:11.547Z,4.50
2018-10-16T04:11:15.822Z,4.50
2018-10-16T04:14:18.693Z,4.50
2018-10-16T04:17:22.547Z,4.50
2018-10-16T04:20:26.166Z,4.50
2018-10-16T04:23:30.307Z,4.60
2018-10-16T04:26:33.755Z,4.50
2018-10-16T04:29:38.468Z,4.40
2018-10-16T04:32:41.932Z,4.30
2018-10-16T04:35:46.807Z,4.30
2018-10-16T04:38:50.813Z,4.30
2018-10-16T04:41:55.274Z,4.30
2018-10-16T04:44:58.366Z,4.30
2018-10-16T04:48:01.848Z,4.30
2018-10-16T04:51:05.982Z,4.30
2018-10-16T04:54:11.210Z,4.30
2018-10-16T04:57:14.766Z,4.30
2018-10-16T05:00:19.087Z,4.30
2018-10-16T05:03:23.185Z,4.30
2018-10-16T05:06:27.691Z,4.30
2018-10-16T05:09:30.618Z,4.30
2018-10-16T05:12:35.007Z,4.30
2018-10-16T05:15:39.874Z,4.20
2018-10-16T05:18:45.774Z,4.20
2018-10-16T05:21:49.349Z,4.20
2018-10-16T05:24:54.039Z,4.20
2018-10-16T05:27:57.290Z,4.10
2018-10-16T05:31:01.797Z,4.20
2018-10-16T05:34:07.391Z,4.20
2018-10-16T05:37:11.606Z,4.20
2018-10-16T05:40:17.234Z,4.30
2018-10-16T05:43:21.375Z,4.40
2018-10-16T05:46:25.691Z,4.40
2018-10-16T05:49:29.586Z,4.40
2018-10-16T05:52:33.906Z,4.30
2018-10-16T05:55:36.914Z,4.20
2018-10-16T05:58:40.891Z,4.20
2018-10-16T06:01:45.558Z,4.30
2018-10-16T06:04:48.525Z,4.30
2018-10-16T06:07:52.775Z,4.30
2018-10-16T06:10:57.271Z,4.30
2018-10-16T06:14:02.224Z,4.40
2018-10-16T06:17:06.048Z,4.40
2018-10-16T06:20:12.027Z,4.60
2018-10-16T06:23:16.223Z,4.60
2018-10-16T06:26:21.612Z,4.70
2018-10-16T06:29:25.831Z,4.80
2018-10-16T06:32:29.954Z,4.90
2018-10-16T06:35:34.287Z,4.90
2018-10-16T06:38:39.154Z,5.00
2018-10-16T06:41:43.723Z,5.10
2018-10-16T06:44:46.774Z,5.30
2018-10-16T06:47:51.044Z,5.50
2018-10-16T06:50:54.495Z,5.60
2018-10-16T06:53:57.995Z,5.80
2018-10-16T06:57:02.026Z,6.00
2018-10-16T07:00:06.904Z,6.10
2018-10-16T07:03:11.382Z,6.30
2018-10-16T07:06:15.363Z,6.40
2018-10-16T07:09:19.295Z,6.50
2018-10-16T07:12:23.659Z,6.70
2018-10-16T07:15:28.766Z,7.00
2018-10-16T07:18:32.222Z,7.30
2018-10-16T07:21:35.999Z,7.60
2018-10-16T07:24:40.870Z,7.80
2018-10-16T07:27:45.639Z,8.00
2018-10-16T07:30:49.086Z,8.10
2018-10-16T07:33:54.499Z,8.20
2018-10-16T07:36:58.602Z,8.40
2018-10-16T07:40:02.810Z,8.50
2018-10-16T07:43:05.770Z,8.70
2018-10-16T07:46:09.927Z,8.80
2018-10-16T07:49:13.394Z,9.00
2018-10-16T07:52:16.318Z,9.20
2018-10-16T07:55:19.883Z,9.40
2018-10-16T07:58:24.113Z,9.50
2018-10-16T08:01:28.970Z,9.70
2018-10-16T08:04:32.766Z,10.00
2018-10-16T08:07:37.095Z,10.10
2018-10-16T08:10:42.270Z,10.30
2018-10-16T08:13:46.483Z,10.40
2018-10-16T08:16:50.488Z,10.60
2018-10-16T08:19:53.639Z,10.70
2018-10-16T08:22:57.168Z,10.90
2018-10-16T08:26:01.477Z,11.10
2018-10-16T08:29:05.041Z,11.40
2018-10-16T08:32:09.593Z,11.50
2018-10-16T08:35:15.721Z,11.70
2018-10-16T08:38:28.962Z,11.80
2018-10-16T08:41:37.577Z,11.90
2018-10-16T08:45:22.360Z,12.10
2018-10-16T08:48:36.742Z,12.20
2018-10-16T08:51:46.695Z,12.30
2018-10-16T08:54:50.264Z,12.40
2018-10-16T08:57:55.259Z,12.60
2018-10-16T09:00:59.622Z,12.80
2018-10-16T09:04:05.923Z,12.90
2018-10-16T09:07:10.099Z,13.20
2018-10-16T09:10:14.761Z,13.40
2018-10-16T09:13:20.479Z,13.60
2018-10-16T09:16:24.183Z,13.70
2018-10-16T09:19:27.990Z,13.90
2018-10-16T09:22:32.799Z,14.10
2018-10-16T09:25:35.819Z,14.20
2018-10-16T09:28:40.210Z,14.40
2018-10-16T09:31:44.465Z,14.50
2018-10-16T09:34:48.495Z,14.70
2018-10-16T09:37:54.191Z,14.90
2018-10-16T09:40:59.951Z,15.10
2018-10-16T09:44:04.719Z,15.30
2018-10-16T09:47:09.514Z,15.50
2018-10-16T09:50:13.574Z,15.80
2018-10-16T09:53:17.647Z,16.10
2018-10-16T09:56:22.522Z,16.40
2018-10-16T09:59:26.686Z,16.70
2018-10-16T10:02:31.075Z,17.10
2018-10-16T10:05:36.058Z,17.40
2018-10-16T10:08:41.827Z,17.90
2018-10-16T10:11:46.014Z,18.70
2018-10-16T10:14:50.918Z,19.70
2018-10-16T10:17:55.794Z,20.90
2018-10-16T10:21:00.447Z,22.30
2018-10-16T10:24:05.051Z,23.40
2018-10-16T10:27:09.547Z,24.40
2018-10-16T10:30:13.892Z,25.20
2018-10-16T10:33:17.627Z,26.50
2018-10-16T10:36:21.050Z,26.70
2018-10-16T10:39:25.467Z,26.60
2018-10-16T10:42:30.106Z,27.30
2018-10-16T10:45:34.571Z,27.60
2018-10-16T10:48:38.226Z,28.00
2018-10-16T10:51:43.083Z,29.20
2018-10-16T10:54:46.674Z,29.10
2018-10-16T10:57:51.635Z,29.50
2018-10-16T11:00:56.530Z,30.20
2018-10-16T11:04:02.411Z,29.40
2018-10-16T11:07:07.226Z,29.10
2018-10-16T11:10:12.806Z,29.10
2018-10-16T11:13:18.063Z,29.50
2018-10-16T11:16:23.492Z,28.60
2018-10-16T11:19:29.112Z,28.60
2018-10-16T11:22:33.179Z,28.80
2018-10-16T11:25:37.390Z,30.20
2018-10-16T11:28:41.079Z,30.10
2018-10-16T11:31:44.032Z,31.10
2018-10-16T11:34:47.355Z,31.70
2018-10-16T11:37:50.419Z,30.50
2018-10-16T11:40:54.347Z,30.40
2018-10-16T11:43:59.174Z,30.60
2018-10-16T11:47:02.748Z,31.30
2018-10-16T11:50:07.053Z,31.80
2018-10-16T11:53:11.282Z,31.20
2018-10-16T11:56:15.322Z,30.40
2018-10-16T11:59:20.286Z,30.70
2018-10-16T12:02:24.377Z,32.20
2018-10-16T12:05:27.446Z,31.60
2018-10-16T12:08:32.495Z,31.50
2018-10-16T12:11:37.886Z,31.80
2018-10-16T12:14:43.801Z,32.40
2018-10-16T12:17:52.831Z,33.90
2018-10-16T12:21:02.619Z,31.40
2018-10-16T12:24:07.591Z,30.70
2018-10-16T12:27:12.781Z,28.50
2018-10-16T12:30:17.831Z,27.40
2018-10-16T12:33:22.561Z,26.80
2018-10-16T12:36:25.769Z,26.60
2018-10-16T12:39:30.067Z,26.30
2018-10-16T12:42:33.188Z,25.90
2018-10-16T12:45:36.880Z,25.90
2018-10-16T12:48:41.216Z,25.20
2018-10-16T12:51:45.111Z,25.40
2018-10-16T12:54:48.831Z,25.30
2018-10-16T12:57:53.146Z,24.80
2018-10-16T13:00:56.755Z,24.60
2018-10-16T13:04:01.659Z,24.20
2018-10-16T13:07:13.363Z,24.10
2018-10-16T13:10:17.398Z,24.20
2018-10-16T13:13:29.159Z,24.30
2018-10-16T13:16:40.610Z,24.50
2018-10-16T13:19:45.294Z,25.70
2018-10-16T13:22:50.622Z,27.30
2018-10-16T13:25:55.799Z,28.80
2018-10-16T13:29:01.534Z,29.70
2018-10-16T13:32:11.991Z,29.80
2018-10-16T13:35:20.966Z,29.30
2018-10-16T13:38:29.695Z,27.80
2018-10-16T13:41:34.180Z,27.60
2018-10-16T13:44:42.007Z,26.10
2018-10-16T13:47:48.736Z,25.80
2018-10-16T13:50:56.267Z,25.80
2018-10-16T13:54:02.256Z,25.40
2018-10-16T13:57:14.194Z,25.00
2018-10-16T14:00:23.177Z,24.90
2018-10-16T14:03:35.557Z,24.80
2018-10-16T14:06:41.825Z,24.50
2018-10-16T14:09:50.463Z,24.60
2018-10-16T14:12:55.373Z,24.90
2018-10-16T14:16:12.337Z,25.50
2018-10-16T14:19:19.430Z,25.80
2018-10-16T14:22:30.543Z,26.20
2018-10-16T14:25:36.367Z,26.40
2018-10-16T14:28:41.803Z,26.50
2018-10-16T14:31:47.514Z,26.70
2018-10-16T14:34:54.873Z,27.30
2018-10-16T14:38:06.062Z,27.30
2018-10-16T14:41:12.202Z,27.10
2018-10-16T14:44:44.703Z,27.00
2018-10-16T14:47:59.767Z,26.60
2018-10-16T14:51:05.993Z,26.20
2018-10-16T14:54:22.007Z,26.30
2018-10-16T14:57:38.610Z,26.70
2018-10-16T15:00:44.058Z,26.60
2018-10-16T15:03:55.150Z,26.00
2018-10-16T15:07:02.751Z,25.00
2018-10-16T15:10:14.129Z,24.30
2018-10-16T15:13:23.640Z,23.40
2018-10-16T15:16:34.127Z,22.70
2018-10-16T15:19:43.363Z,22.10
2018-10-16T15:22:49.841Z,21.70
2018-10-16T15:25:57.066Z,21.40
2018-10-16T15:29:02.383Z,21.00
2018-10-16T15:32:15.758Z,20.60
2018-10-16T15:35:19.416Z,20.20
2018-10-16T15:38:36.513Z,19.90
2018-10-16T15:41:51.193Z,19.60
2018-10-16T15:44:57.787Z,19.10
2018-10-16T15:48:01.635Z,18.70
2018-10-16T15:51:06.653Z,18.40
2018-10-16T15:54:18.322Z,18.20
2018-10-16T15:57:23.270Z,17.80
2018-10-16T16:00:40.894Z,17.60
2018-10-16T16:03:46.848Z,17.30
2018-10-16T16:06:51.645Z,17.10
2018-10-16T16:09:57.406Z,16.80
2018-10-16T16:13:05.804Z,16.50
2018-10-16T16:16:10.704Z,16.30
2018-10-16T16:19:15.047Z,16.20
2018-10-16T16:22:18.747Z,16.00
2018-10-16T16:25:23.595Z,15.80
2018-10-16T16:28:28.598Z,15.60
2018-10-16T16:31:32.782Z,15.30
2018-10-16T16:34:37.035Z,15.10
2018-10-16T16:37:41.527Z,14.80
2018-10-16T16:40:47.427Z,14.70
2018-10-16T16:43:51.391Z,14.60
2018-10-16T16:46:55.524Z,14.40
2018-10-16T16:49:58.396Z,14.20
2018-10-16T16:53:02.569Z,14.10
2018-10-16T16:56:07.107Z,14.00
2018-10-16T16:59:12.087Z,13.80
2018-10-16T17:02:15.786Z,13.70
2018-10-16T17:05:19.244Z,13.60
2018-10-16T17:08:22.845Z,13.40
2018-10-16T17:11:26.434Z,13.30
2018-10-16T17:14:31.462Z,13.20
2018-10-16T17:17:36.730Z,13.00
2018-10-16T17:20:42.510Z,12.80
2018-10-16T17:23:46.658Z,12.70
2018-10-16T17:26:50.835Z,12.50
2018-10-16T17:29:55.164Z,12.40
2018-10-16T17:32:59.812Z,12.30
2018-10-16T17:36:03.947Z,12.30
2018-10-16T17:39:09.840Z,12.20
2018-10-16T17:42:26.040Z,12.10
2018-10-16T17:45:36.445Z,12.00
2018-10-16T17:48:47.280Z,11.90
2018-10-16T17:51:53.720Z,11.70
2018-10-16T17:55:02.176Z,11.60
2018-10-16T17:58:18.568Z,11.50
2018-10-16T18:01:23.539Z,11.40
2018-10-16T18:04:40.069Z,11.30
2018-10-16T18:07:45.473Z,11.20
2018-10-16T18:10:52.366Z,11.10
2018-10-16T18:13:59.983Z,11.10
2018-10-16T18:17:11.139Z,11.00
2018-10-16T18:20:17.591Z,10.90
2018-10-16T18:23:31.108Z,10.90
2018-10-16T18:26:36.960Z,10.80
2018-10-16T18:29:45.533Z,10.70
2018-10-16T18:32:58.000Z,10.50
2018-10-16T18:36:02.630Z,10.40
2018-10-16T18:39:09.119Z,10.40
2018-10-16T18:42:14.539Z,10.30
2018-10-16T18:45:18.647Z,10.30
2018-10-16T18:48:29.012Z,10.20
2018-10-16T18:51:35.468Z,10.10
2018-10-16T18:54:42.211Z,10.00
2018-10-16T18:57:49.336Z,10.00
2018-10-16T19:00:54.601Z,9.90
2018-10-16T19:04:00.167Z,9.80
2018-10-16T19:07:14.988Z,9.90
2018-10-16T19:10:32.274Z,9.80
2018-10-16T19:13:36.944Z,9.60
2018-10-16T19:16:41.408Z,9.60
2018-10-16T19:19:47.543Z,9.50
2018-10-16T19:22:55.786Z,9.40
2018-10-16T19:26:05.030Z,9.40
2018-10-16T19:29:15.695Z,9.30
2018-10-16T19:32:34.970Z,9.30
2018-10-16T19:35:40.170Z,9.10
2018-10-16T19:38:54.834Z,9.10
2018-10-16T19:42:02.713Z,9.00
2018-10-16T19:45:15.306Z,9.00
2018-10-16T19:48:21.828Z,8.90
2018-10-16T19:51:30.027Z,8.80
2018-10-16T19:54:36.002Z,8.80
2018-10-16T19:57:43.621Z,8.80
2018-10-16T20:00:52.685Z,8.70
2018-10-16T20:04:02.947Z,8.70
2018-10-16T20:07:12.507Z,8.60
2018-10-16T20:10:20.154Z,8.60
2018-10-16T20:13:25.851Z,8.60
2018-10-16T20:16:32.010Z,8.50
2018-10-16T20:19:38.736Z,8.40
2018-10-16T20:22:45.755Z,8.40
2018-10-16T20:25:50.802Z,8.30
2018-10-16T20:29:01.364Z,8.20
2018-10-16T20:32:09.659Z,8.20
2018-10-16T20:35:19.438Z,8.10
2018-10-16T20:38:28.315Z,8.10
2018-10-16T20:41:34.865Z,8.00
2018-10-16T20:44:40.838Z,8.00
2018-10-16T20:47:55.469Z,7.90
2018-10-16T20:51:05.700Z,7.90
2018-10-16T20:54:11.221Z,7.80
2018-10-16T20:57:23.154Z,7.80
2018-10-16T21:00:30.510Z,7.80
2018-10-16T21:03:35.196Z,7.80
2018-10-16T21:06:41.790Z,7.70
2018-10-16T21:09:47.483Z,7.70
2018-10-16T21:12:54.914Z,7.60
2018-10-16T21:16:00.140Z,7.50
2018-10-16T21:19:13.744Z,7.50
2018-10-16T21:22:22.491Z,7.40
2018-10-16T21:25:33.134Z,7.40
2018-10-16T21:28:44.284Z,7.30
2018-10-16T21:31:52.315Z,7.30
2018-10-16T21:35:02.530Z,7.30
2018-10-16T21:38:07.624Z,7.30
2018-10-16T21:41:14.451Z,7.20
2018-10-16T21:44:20.010Z,7.10
2018-10-16T21:47:39.308Z,7.10
2018-10-16T21:50:53.137Z,7.00
2018-10-16T21:53:59.920Z,7.00
2018-10-16T21:57:04.633Z,7.00
2018-10-16T22:00:18.156Z,6.90
2018-10-16T22:03:24.248Z,6.90
2018-10-16T22:06:32.907Z,6.90
2018-10-16T22:09:41.475Z,6.90
2018-10-16T22:12:50.034Z,6.90
2018-10-16T22:15:56.556Z,6.80
2018-10-16T22:19:02.439Z,6.70
2018-10-16T22:22:07.264Z,6.60
2018-10-16T22:25:15.709Z,6.60
2018-10-16T22:28:24.993Z,6.50
2018-10-16T22:31:28.435Z,6.50
2018-10-16T22:34:32.463Z,6.50
2018-10-16T22:37:36.470Z,6.50
2018-10-16T22:40:39.382Z,6.50
2018-10-16T22:43:43.912Z,6.40
2018-10-16T22:46:48.392Z,6.40
2018-10-16T22:49:52.423Z,6.30
2018-10-16T22:52:56.147Z,6.30
2018-10-16T22:56:00.752Z,6.40
2018-10-16T22:59:04.887Z,6.30
2018-10-16T23:02:08.542Z,6.30
2018-10-16T23:05:12.860Z,6.20
2018-10-16T23:08:17.206Z,6.20
2018-10-16T23:11:22.076Z,6.10
2018-10-16T23:14:27.034Z,6.10
2018-10-16T23:17:29.886Z,6.00
2018-10-16T23:20:33.964Z,6.00
2018-10-16T23:23:38.594Z,6.00
2018-10-16T23:26:42.563Z,6.00
2018-10-16T23:29:47.878Z,6.00
